Airport View

Enter AWOS ICAO identifier for current METAR.

ex. KFNL

KAYS 100335Z AUTO 00000KT 10SM SCT060 25/22 A2992 RMK AO2 T02500221 TSNO

10 Jul 2020 03:52

Frequency: 118.575

Phone: 912-287-4466

Other Area AWOS: KAMG - KHOE - KDQH - KBHC

TAF KVAD 100000Z 1000/1106 27006KT 9999 SCT030 QNH2987INS TEMPO 1000/1002 35015G25KT 4800 TSRA BKN030CB BECMG 1008/1010 27006KT 4800 BR BKN003 QNH2992INS BECMG 1012/1014 27006KT 9999 NSW BKN010 QNH2995INS BECMG 1015/1016 27009KT 9999 BKN030 QNH2987INS TEMPO 1021/1024 35015G30KT 4800 TSRA BKN050CB TX33/1018Z TN24/1006Z